Time;durP1;ratioP1;P1;durP2;ratioP2;P2;SDS_P1;SDS_P2;PMS_P1;PMS_P2;Temp;Humidity;BMP_temperature;BMP_pressure;BME280_temperature;BME280_humidity;BME280_pressure;Samples;Min_cycle;Max_cycle;Signal;HPM_P1;HPM_P2
2024/03/14 00:01:16;;;;;;;0.98;0.40;;;12.10;99.90;;;;;;4163177;28;20100;-56
2024/03/14 00:03:18;;;;;;;0.38;0.38;;;12.10;99.90;;;;;;4163866;28;20076;-55
2024/03/14 00:05:20;;;;;;;0.77;0.77;;;12.10;99.90;;;;;;4163489;28;20057;-61
2024/03/14 00:07:22;;;;;;;1.10;0.82;;;12.00;99.90;;;;;;4163334;28;20129;-55
2024/03/14 00:09:25;;;;;;;1.80;0.80;;;12.00;99.90;;;;;;4162752;28;20128;-55
2024/03/14 00:11:29;;;;;;;2.25;0.57;;;12.00;99.90;;;;;;4163539;28;20535;-56
2024/03/14 00:13:33;;;;;;;0.73;0.40;;;12.00;99.90;;;;;;4163391;28;20045;-56
2024/03/14 00:15:35;;;;;;;0.52;0.35;;;12.10;99.90;;;;;;4163492;28;20798;-57
2024/03/14 00:17:38;;;;;;;0.60;0.50;;;12.10;99.90;;;;;;4163378;28;20097;-56
2024/03/14 00:19:41;;;;;;;0.30;0.30;;;12.10;99.90;;;;;;4163358;28;20065;-56
2024/03/14 00:21:43;;;;;;;0.90;0.50;;;12.00;99.90;;;;;;4147282;28;20460;-56
2024/03/14 00:23:46;;;;;;;1.63;0.82;;;12.00;99.90;;;;;;4146766;28;20045;-55
2024/03/14 00:25:48;;;;;;;2.63;0.30;;;11.90;99.90;;;;;;4163456;28;20435;-56
2024/03/14 00:27:50;;;;;;;0.70;0.50;;;11.90;99.90;;;;;;4163641;28;20128;-56
2024/03/14 00:29:55;;;;;;;0.40;0.40;;;12.00;99.90;;;;;;4163053;28;20048;-55
2024/03/14 00:31:58;;;;;;;0.60;0.40;;;12.00;99.90;;;;;;4163695;28;20052;-56
2024/03/14 00:34:00;;;;;;;0.30;0.30;;;11.90;99.90;;;;;;4163054;28;20049;-55
2024/03/14 00:36:04;;;;;;;0.35;0.35;;;11.90;99.90;;;;;;4163279;28;20056;-55
2024/03/14 00:38:07;;;;;;;0.43;0.32;;;11.90;99.90;;;;;;4163232;28;20476;-59
2024/03/14 00:40:11;;;;;;;0.40;0.38;;;11.90;99.90;;;;;;4163515;28;20069;-55
2024/03/14 00:42:13;;;;;;;0.50;0.50;;;12.00;99.90;;;;;;4163292;28;20049;-56
2024/03/14 00:44:15;;;;;;;0.50;0.47;;;11.90;99.90;;;;;;4162994;28;20049;-57
2024/03/14 00:46:18;;;;;;;0.70;0.50;;;12.00;99.90;;;;;;4162901;28;20469;-55
2024/03/14 00:48:21;;;;;;;0.30;0.30;;;12.10;99.90;;;;;;4163355;28;20072;-55
2024/03/14 00:50:24;;;;;;;0.98;0.88;;;12.10;99.90;;;;;;4162922;28;20051;-55
2024/03/14 00:52:26;;;;;;;0.77;0.40;;;12.00;99.90;;;;;;4146477;28;20049;-60
2024/03/14 00:54:28;;;;;;;0.30;0.30;;;11.90;99.90;;;;;;4162940;28;20041;-56
2024/03/14 00:56:31;;;;;;;0.82;0.55;;;12.00;99.90;;;;;;4162942;28;20409;-56
2024/03/14 00:58:35;;;;;;;0.80;0.40;;;11.90;99.90;;;;;;4163200;28;20046;-55
2024/03/14 01:00:37;;;;;;;0.55;0.40;;;11.90;99.90;;;;;;4163164;28;20055;-56
2024/03/14 01:02:39;;;;;;;0.40;0.38;;;11.90;99.90;;;;;;4162787;28;20046;-55
2024/03/14 01:04:45;;;;;;;1.08;0.30;;;11.80;99.90;;;;;;4162933;28;20045;-55
2024/03/14 01:06:47;;;;;;;0.95;0.57;;;11.70;99.90;;;;;;4162389;28;20049;-55
2024/03/14 01:08:49;;;;;;;0.43;0.30;;;11.70;99.90;;;;;;4162686;28;20477;-57
2024/03/14 01:10:52;;;;;;;0.50;0.50;;;11.70;99.90;;;;;;4147366;28;20042;-56
2024/03/14 01:12:54;;;;;;;1.30;0.43;;;11.70;99.90;;;;;;4151720;28;20408;-55
2024/03/14 01:14:56;;;;;;;0.80;0.35;;;11.50;99.90;;;;;;4151410;28;20488;-55
2024/03/14 01:16:59;;;;;;;0.40;0.40;;;11.50;99.90;;;;;;4151377;28;20137;-56
2024/03/14 01:19:01;;;;;;;0.82;0.40;;;11.40;99.90;;;;;;4151635;28;20046;-55
2024/03/14 01:21:08;;;;;;;0.50;0.50;;;11.30;99.90;;;;;;4151111;28;20053;-56
2024/03/14 01:23:10;;;;;;;1.30;0.60;;;11.20;99.90;;;;;;4151563;28;20564;-55
2024/03/14 01:25:13;;;;;;;0.93;0.63;;;11.20;99.90;;;;;;4135362;28;20046;-57
2024/03/14 01:27:18;;;;;;;0.90;0.50;;;11.10;99.90;;;;;;4151412;28;20042;-56
2024/03/14 01:29:20;;;;;;;;;;;11.10;99.90;;;;;;4153024;28;20481;-64
2024/03/14 01:31:22;;;;;;;1.50;0.43;;;11.10;99.90;;;;;;4136718;28;19929;-59
2024/03/14 01:33:24;;;;;;;0.52;0.38;;;11.00;99.90;;;;;;4152251;28;20045;-55
2024/03/14 01:35:26;;;;;;;0.90;0.55;;;11.10;99.90;;;;;;4135247;28;20502;-56
2024/03/14 01:37:29;;;;;;;2.25;0.68;;;11.20;99.90;;;;;;4135136;28;20065;-56
2024/03/14 01:39:31;;;;;;;0.40;0.40;;;11.30;99.90;;;;;;4151338;28;20070;-62
2024/03/14 01:41:33;;;;;;;0.57;0.45;;;11.30;99.90;;;;;;4151433;28;20046;-55
2024/03/14 01:43:36;;;;;;;0.63;0.38;;;11.30;99.90;;;;;;4151315;28;20069;-55
2024/03/14 01:45:38;;;;;;;0.40;0.40;;;11.20;99.90;;;;;;4151286;28;20125;-56
2024/03/14 01:47:40;;;;;;;1.42;0.70;;;11.30;99.90;;;;;;4151287;28;20151;-56
2024/03/14 01:49:42;;;;;;;1.35;0.63;;;11.30;99.90;;;;;;4151506;28;20080;-58
2024/03/14 01:51:45;;;;;;;3.55;0.70;;;11.20;99.90;;;;;;4151122;28;20068;-59
2024/03/14 01:53:49;;;;;;;1.13;1.00;;;11.20;99.90;;;;;;4151753;28;20045;-55
2024/03/14 01:55:52;;;;;;;1.02;0.75;;;11.10;99.90;;;;;;4151328;28;20481;-56
2024/03/14 01:57:54;;;;;;;0.50;0.50;;;11.00;99.90;;;;;;4151405;28;20073;-55
2024/03/14 01:59:58;;;;;;;2.55;1.38;;;11.10;99.90;;;;;;4135306;28;20133;-55
2024/03/14 02:02:00;;;;;;;0.85;0.85;;;11.10;99.90;;;;;;4135516;28;20073;-56
2024/03/14 02:04:08;;;;;;;1.42;1.27;;;11.10;99.90;;;;;;4151726;28;20050;-57
2024/03/14 02:06:11;;;;;;;1.55;1.25;;;11.20;99.90;;;;;;4151427;28;20377;-55
2024/03/14 02:08:13;;;;;;;0.93;0.40;;;11.10;99.90;;;;;;4151562;28;20042;-56
2024/03/14 02:10:18;;;;;;;0.60;0.50;;;11.10;99.90;;;;;;4162743;28;20642;-56
2024/03/14 02:12:21;;;;;;;0.68;0.40;;;11.10;99.90;;;;;;4167899;28;20163;-56
2024/03/14 02:14:24;;;;;;;0.60;0.60;;;11.10;99.90;;;;;;4167675;28;20128;-56
2024/03/14 02:16:26;;;;;;;2.33;1.33;;;11.10;99.90;;;;;;4167331;28;20053;-55
2024/03/14 02:18:28;;;;;;;1.75;0.90;;;11.00;99.90;;;;;;4167511;28;20091;-55
2024/03/14 02:20:31;;;;;;;2.88;0.80;;;11.00;99.90;;;;;;4150649;28;20050;-56
2024/03/14 02:22:34;;;;;;;0.70;0.50;;;11.00;99.90;;;;;;4165748;28;20045;-55
2024/03/14 02:24:36;;;;;;;0.90;0.73;;;11.00;99.90;;;;;;4164554;28;20057;-56
2024/03/14 02:26:39;;;;;;;0.68;0.60;;;10.90;99.90;;;;;;4164845;28;20045;-55
2024/03/14 02:28:41;;;;;;;1.00;0.38;;;10.90;99.90;;;;;;4164679;28;20053;-55
2024/03/14 02:30:44;;;;;;;1.90;0.75;;;10.90;99.90;;;;;;4164662;28;20049;-55
2024/03/14 02:32:47;;;;;;;0.40;0.35;;;11.00;99.90;;;;;;4148324;28;20392;-55
2024/03/14 02:34:50;;;;;;;5.78;0.80;;;11.00;99.90;;;;;;4148286;28;20054;-62
2024/03/14 02:36:52;;;;;;;0.75;0.30;;;11.00;99.90;;;;;;4164462;28;20049;-56
2024/03/14 02:38:54;;;;;;;0.80;0.50;;;11.00;99.90;;;;;;4164430;28;20045;-55
2024/03/14 02:40:56;;;;;;;0.75;0.60;;;11.00;99.90;;;;;;4164750;28;20051;-60
2024/03/14 02:42:59;;;;;;;0.50;0.40;;;11.00;99.90;;;;;;4164670;28;20050;-56
2024/03/14 02:45:01;;;;;;;0.80;0.47;;;11.00;99.90;;;;;;4164657;28;20052;-56
2024/03/14 02:47:04;;;;;;;0.98;0.93;;;10.90;99.90;;;;;;4164397;28;20050;-55
2024/03/14 02:49:06;;;;;;;0.63;0.40;;;10.90;99.90;;;;;;4164133;28;20045;-55
2024/03/14 02:51:08;;;;;;;0.77;0.40;;;10.80;99.90;;;;;;4164519;28;20052;-60
2024/03/14 02:53:13;;;;;;;3.45;1.00;;;10.90;99.90;;;;;;4148221;28;20046;-56
2024/03/14 02:55:16;;;;;;;0.73;0.60;;;10.90;99.90;;;;;;4148495;28;20120;-58
2024/03/14 02:57:18;;;;;;;0.30;0.30;;;10.90;99.90;;;;;;4148963;28;20501;-60
2024/03/14 02:59:20;;;;;;;1.85;0.65;;;10.90;99.90;;;;;;4148679;28;20050;-60
2024/03/14 03:01:22;;;;;;;1.30;0.47;;;10.90;99.90;;;;;;4164691;28;20050;-56
2024/03/14 03:03:25;;;;;;;0.68;0.55;;;10.90;99.90;;;;;;4164435;28;20049;-55
2024/03/14 03:05:28;;;;;;;0.20;0.20;;;10.90;99.90;;;;;;4164575;28;20049;-63
2024/03/14 03:07:32;;;;;;;0.43;0.40;;;10.90;99.90;;;;;;4164178;28;20046;-55
2024/03/14 03:09:37;;;;;;;0.93;0.43;;;10.90;99.90;;;;;;4164075;28;20119;-55
2024/03/14 03:11:40;;;;;;;1.17;1.02;;;10.90;99.90;;;;;;4164209;28;20049;-56
2024/03/14 03:13:42;;;;;;;6.72;1.05;;;10.90;99.90;;;;;;4163766;28;20576;-56
2024/03/14 03:15:44;;;;;;;0.75;0.43;;;10.80;99.90;;;;;;4164076;28;20045;-57
2024/03/14 03:17:46;;;;;;;0.60;0.50;;;10.70;99.90;;;;;;4164034;28;20053;-56
2024/03/14 03:19:49;;;;;;;1.00;0.77;;;10.70;99.90;;;;;;4164231;28;20473;-55
2024/03/14 03:21:51;;;;;;;5.03;0.50;;;10.80;99.90;;;;;;4148007;28;20050;-55
2024/03/14 03:23:54;;;;;;;0.90;0.52;;;10.80;99.90;;;;;;4147674;28;20133;-55
2024/03/14 03:25:56;;;;;;;0.75;0.63;;;10.80;99.90;;;;;;4163832;28;20064;-56
2024/03/14 03:27:58;;;;;;;0.43;0.30;;;10.80;99.90;;;;;;4163950;28;20133;-55
2024/03/14 03:30:00;;;;;;;1.20;0.60;;;10.80;99.90;;;;;;4163979;28;20492;-56
2024/03/14 03:32:03;;;;;;;0.45;0.40;;;10.80;99.90;;;;;;4163537;28;20046;-56
2024/03/14 03:34:07;;;;;;;0.82;0.40;;;10.70;99.90;;;;;;4147407;28;20474;-55
2024/03/14 03:36:09;;;;;;;0.73;0.30;;;10.70;99.90;;;;;;4147696;28;20046;-56
2024/03/14 03:38:13;;;;;;;1.42;0.82;;;10.70;99.90;;;;;;4163803;28;20049;-60
2024/03/14 03:40:22;;;;;;;0.50;0.50;;;10.70;99.90;;;;;;4164311;28;20045;-59
2024/03/14 03:42:25;;;;;;;0.45;0.43;;;10.80;99.90;;;;;;4163742;28;20045;-56
2024/03/14 03:44:29;;;;;;;2.83;1.05;;;10.70;99.90;;;;;;4147196;28;20053;-57
2024/03/14 03:46:32;;;;;;;0.68;0.40;;;10.60;99.90;;;;;;4163050;28;20141;-55
2024/03/14 03:48:37;;;;;;;0.43;0.43;;;10.60;99.90;;;;;;4163637;28;20560;-55
2024/03/14 03:50:39;;;;;;;1.13;1.02;;;10.60;99.90;;;;;;4163657;28;20076;-55
2024/03/14 03:52:42;;;;;;;2.55;0.68;;;10.50;99.90;;;;;;4163443;28;20049;-55
2024/03/14 03:54:46;;;;;;;0.40;0.40;;;10.60;99.90;;;;;;4163467;28;20069;-56
2024/03/14 03:56:48;;;;;;;0.73;0.38;;;10.60;99.90;;;;;;4163686;28;20124;-56
2024/03/14 03:58:50;;;;;;;0.40;0.40;;;10.60;99.90;;;;;;4163520;28;20041;-56
2024/03/14 04:00:54;;;;;;;1.10;0.60;;;10.60;99.90;;;;;;4163635;28;20117;-62
2024/03/14 04:02:57;;;;;;;0.43;0.43;;;10.70;99.90;;;;;;4164574;28;20073;-62
2024/03/14 04:04:59;;;;;;;0.50;0.40;;;10.80;99.90;;;;;;4165022;28;20053;-59
2024/03/14 04:07:03;;;;;;;0.82;0.68;;;10.90;99.90;;;;;;4164659;28;20087;-57
2024/03/14 04:09:05;;;;;;;1.33;1.13;;;10.80;99.90;;;;;;4164036;28;20460;-55
2024/03/14 04:11:07;;;;;;;2.53;0.65;;;10.70;99.90;;;;;;4163570;28;20068;-57
2024/03/14 04:13:10;;;;;;;1.15;0.85;;;10.80;99.90;;;;;;4163006;28;20101;-56
2024/03/14 04:15:12;;;;;;;0.63;0.50;;;10.90;99.90;;;;;;4146525;28;20046;-57
2024/03/14 04:17:15;;;;;;;1.13;0.45;;;10.90;99.90;;;;;;4163005;28;20072;-56
2024/03/14 04:19:17;;;;;;;0.50;0.38;;;11.10;99.90;;;;;;4163000;28;20049;-57
2024/03/14 04:21:19;;;;;;;0.45;0.40;;;11.00;99.90;;;;;;4163105;28;20041;-55
2024/03/14 04:23:21;;;;;;;1.45;0.73;;;11.00;99.90;;;;;;4163325;28;20460;-55
2024/03/14 04:25:23;;;;;;;17.05;1.42;;;11.00;99.90;;;;;;4163592;28;20080;-57
2024/03/14 04:27:29;;;;;;;0.45;0.20;;;10.90;99.90;;;;;;4163896;28;20432;-58
2024/03/14 04:29:31;;;;;;;0.35;0.30;;;11.00;99.90;;;;;;4163470;28;20144;-55
2024/03/14 04:31:33;;;;;;;1.27;0.73;;;10.90;99.90;;;;;;4163603;28;20445;-56
2024/03/14 04:33:36;;;;;;;0.43;0.43;;;10.90;99.90;;;;;;4146681;28;20052;-55
2024/03/14 04:35:38;;;;;;;0.55;0.55;;;10.80;99.90;;;;;;4162969;28;20049;-55
2024/03/14 04:37:42;;;;;;;1.23;0.65;;;10.80;99.90;;;;;;4162792;28;20053;-55
2024/03/14 04:39:45;;;;;;;1.48;0.85;;;10.80;99.90;;;;;;4162714;28;20041;-56
2024/03/14 04:41:47;;;;;;;0.50;0.38;;;10.70;99.90;;;;;;4163054;28;20108;-55
2024/03/14 04:43:49;;;;;;;0.47;0.40;;;10.70;99.90;;;;;;4146437;28;20065;-56
2024/03/14 04:45:52;;;;;;;1.20;0.70;;;10.60;99.90;;;;;;4161723;28;20057;-56
2024/03/14 04:47:54;;;;;;;0.30;0.30;;;10.60;99.90;;;;;;4162822;28;20049;-56
2024/03/14 04:49:57;;;;;;;0.20;0.20;;;10.70;99.90;;;;;;4163138;28;20049;-55
2024/03/14 04:51:59;;;;;;;0.77;0.40;;;10.70;99.90;;;;;;4162807;28;20127;-55
2024/03/14 04:54:02;;;;;;;0.73;0.57;;;10.70;99.90;;;;;;4163072;28;20053;-68
2024/03/14 04:56:05;;;;;;;0.47;0.40;;;10.70;99.90;;;;;;4162947;28;20046;-57
2024/03/14 04:58:07;;;;;;;0.70;0.70;;;10.70;99.90;;;;;;4163268;28;20137;-55
2024/03/14 05:02:22;;;;;;;2.33;1.13;;;10.70;99.90;;;;;;4163104;28;20076;-57
2024/03/14 05:04:24;;;;;;;0.22;0.22;;;10.70;99.90;;;;;;4162771;28;20049;-56
2024/03/14 05:06:26;;;;;;;0.60;0.40;;;10.60;99.90;;;;;;4162904;28;20042;-56
2024/03/14 05:08:29;;;;;;;1.17;0.50;;;10.60;99.90;;;;;;4162796;28;20041;-56
2024/03/14 05:10:31;;;;;;;1.58;0.40;;;10.70;99.90;;;;;;4162635;28;20069;-55
2024/03/14 05:12:34;;;;;;;0.30;0.30;;;10.70;99.90;;;;;;4162817;28;20073;-56
2024/03/14 05:14:36;;;;;;;2.28;0.57;;;10.70;99.90;;;;;;4162636;28;20037;-56
2024/03/14 05:16:40;;;;;;;0.45;0.40;;;10.60;99.90;;;;;;4162872;28;20056;-55
2024/03/14 05:18:42;;;;;;;0.57;0.22;;;10.60;99.90;;;;;;4163280;28;20128;-57
2024/03/14 05:20:45;;;;;;;0.93;0.30;;;10.70;99.90;;;;;;4163429;28;20175;-60
2024/03/14 05:22:48;;;;;;;0.30;0.30;;;10.70;99.90;;;;;;4163600;28;20049;-55
2024/03/14 05:24:51;;;;;;;0.50;0.38;;;10.90;99.90;;;;;;4162853;28;20068;-55
2024/03/14 05:26:54;;;;;;;2.58;0.70;;;10.80;99.90;;;;;;4162773;28;20050;-56
2024/03/14 05:28:56;;;;;;;1.15;1.05;;;10.70;99.90;;;;;;4162331;28;20045;-55
2024/03/14 05:30:59;;;;;;;0.98;0.88;;;10.70;99.90;;;;;;4162594;28;20053;-55
2024/03/14 05:33:01;;;;;;;1.13;0.90;;;10.70;99.90;;;;;;4162687;28;20045;-60
2024/03/14 05:35:03;;;;;;;0.70;0.45;;;10.80;99.90;;;;;;4145999;28;20046;-56
2024/03/14 05:37:07;;;;;;;0.70;0.65;;;10.80;99.90;;;;;;4162672;28;20475;-58
2024/03/14 05:39:09;;;;;;;1.65;0.50;;;10.80;99.90;;;;;;4162689;28;20050;-55
2024/03/14 05:41:11;;;;;;;0.57;0.40;;;10.70;99.90;;;;;;4162297;28;20057;-56
2024/03/14 05:43:14;;;;;;;1.88;0.90;;;10.70;99.90;;;;;;4162197;28;20129;-55
2024/03/14 05:45:21;;;;;;;0.60;0.47;;;10.70;99.90;;;;;;4162205;28;20049;-56
2024/03/14 05:47:24;;;;;;;0.45;0.40;;;10.60;99.90;;;;;;4162303;28;20123;-55
2024/03/14 05:49:27;;;;;;;0.98;0.60;;;10.60;99.90;;;;;;4162522;28;20069;-55
2024/03/14 05:51:32;;;;;;;1.48;1.10;;;10.50;99.90;;;;;;4162384;28;20057;-56
2024/03/14 05:53:34;;;;;;;1.02;0.82;;;10.50;99.90;;;;;;4162271;28;20100;-57
2024/03/14 05:55:36;;;;;;;0.30;0.30;;;10.50;99.90;;;;;;4162182;28;20125;-56
2024/03/14 05:57:39;;;;;;;1.08;0.50;;;10.50;99.90;;;;;;4161755;28;20048;-55
2024/03/14 05:59:42;;;;;;;1.33;1.08;;;10.40;99.90;;;;;;4165292;28;20050;-56
2024/03/14 06:01:44;;;;;;;0.40;0.40;;;10.40;99.90;;;;;;4165139;28;20048;-56
2024/03/14 06:03:47;;;;;;;1.98;1.17;;;10.40;99.90;;;;;;4165044;28;20069;-56
2024/03/14 06:05:52;;;;;;;0.55;0.35;;;10.40;99.90;;;;;;4165227;28;20119;-55
2024/03/14 06:07:54;;;;;;;1.63;0.90;;;10.30;99.90;;;;;;4149155;28;20069;-56
2024/03/14 06:09:56;;;;;;;1.27;0.50;;;10.40;99.90;;;;;;4148620;28;20062;-55
2024/03/14 06:11:59;;;;;;;0.50;0.45;;;10.30;99.90;;;;;;4164703;28;20056;-56
2024/03/14 06:14:03;;;;;;;1.40;0.60;;;10.30;99.90;;;;;;4164882;28;20073;-55
2024/03/14 06:16:07;;;;;;;0.60;0.60;;;10.40;99.90;;;;;;4165125;28;20055;-55
2024/03/14 06:18:10;;;;;;;0.55;0.55;;;10.40;99.90;;;;;;4165124;28;20049;-55
2024/03/14 06:20:12;;;;;;;2.08;0.60;;;10.30;99.90;;;;;;4164926;28;20045;-56
2024/03/14 06:22:15;;;;;;;1.48;0.50;;;10.30;99.90;;;;;;4164978;28;20053;-55
2024/03/14 06:24:18;;;;;;;0.52;0.52;;;10.30;99.90;;;;;;4164933;28;20073;-55
2024/03/14 06:26:20;;;;;;;2.95;0.55;;;10.30;99.90;;;;;;4164541;28;20060;-57
2024/03/14 06:28:23;;;;;;;0.68;0.40;;;10.30;99.90;;;;;;4165064;28;20119;-56
2024/03/14 06:30:25;;;;;;;0.95;0.70;;;10.30;99.90;;;;;;4165337;28;20096;-59
2024/03/14 06:32:29;;;;;;;3.33;2.10;;;10.40;99.90;;;;;;4165084;28;20045;-59
2024/03/14 06:34:31;;;;;;;1.08;0.50;;;10.30;99.90;;;;;;4148843;28;20410;-61
2024/03/14 06:36:35;;;;;;;0.40;0.40;;;10.30;99.90;;;;;;4165090;28;20136;-56
2024/03/14 06:38:37;;;;;;;2.33;0.82;;;10.30;99.90;;;;;;4165664;28;20041;-62
2024/03/14 06:40:39;;;;;;;1.85;1.17;;;10.30;99.90;;;;;;4150166;28;20048;-58
2024/03/14 06:42:41;;;;;;;0.85;0.45;;;10.30;99.90;;;;;;4149603;28;20383;-59
2024/03/14 06:44:43;;;;;;;3.72;0.60;;;10.30;99.90;;;;;;4165097;28;20046;-56
2024/03/14 06:46:45;;;;;;;0.77;0.40;;;10.40;99.90;;;;;;4165523;28;20069;-56
2024/03/14 06:48:48;;;;;;;1.40;0.55;;;10.40;99.90;;;;;;4165156;28;20101;-56
2024/03/14 06:50:51;;;;;;;0.47;0.30;;;10.40;99.90;;;;;;4148697;28;20056;-59
2024/03/14 06:52:53;;;;;;;0.77;0.50;;;10.30;99.90;;;;;;4148404;28;20048;-56
2024/03/14 06:54:55;;;;;;;1.25;0.98;;;10.40;99.90;;;;;;4148073;28;20045;-55
2024/03/14 06:57:00;;;;;;;0.60;0.43;;;10.30;99.90;;;;;;4164709;28;20447;-56
2024/03/14 06:59:05;;;;;;;;;;;10.40;99.90;;;;;;4165196;28;20051;-56
2024/03/14 07:01:08;;;;;;;1.20;0.50;;;10.40;99.90;;;;;;4164534;28;19929;-55
2024/03/14 07:03:11;;;;;;;1.85;1.20;;;10.40;99.90;;;;;;4164439;28;20053;-55
2024/03/14 07:05:14;;;;;;;2.05;0.77;;;10.40;99.90;;;;;;4164317;28;20140;-55
2024/03/14 07:07:18;;;;;;;0.47;0.38;;;10.50;99.90;;;;;;4164249;28;20129;-57
2024/03/14 07:09:26;;;;;;;4.40;1.17;;;10.50;99.90;;;;;;4163364;28;20068;-55
2024/03/14 07:11:29;;;;;;;1.20;0.55;;;10.50;99.90;;;;;;4164243;28;20037;-56
2024/03/14 07:13:35;;;;;;;3.40;0.75;;;10.50;99.90;;;;;;4163835;28;20049;-55
2024/03/14 07:15:39;;;;;;;0.75;0.55;;;10.50;99.90;;;;;;4164186;28;20054;-56
2024/03/14 07:17:42;;;;;;;5.35;1.88;;;10.60;99.90;;;;;;4164233;28;20058;-55
2024/03/14 07:19:44;;;;;;;1.55;1.27;;;10.50;99.90;;;;;;4163956;28;20045;-55
2024/03/14 07:21:49;;;;;;;0.65;0.65;;;10.50;99.90;;;;;;4163732;28;20111;-55
2024/03/14 07:23:53;;;;;;;0.70;0.70;;;10.70;99.90;;;;;;4163921;28;20057;-55
2024/03/14 07:25:56;;;;;;;0.90;0.63;;;10.90;99.90;;;;;;4163939;28;20464;-58
2024/03/14 07:27:58;;;;;;;3.90;0.90;;;11.10;99.90;;;;;;4163796;28;20100;-56
2024/03/14 07:30:00;;;;;;;1.05;0.60;;;11.30;99.90;;;;;;4164114;28;20494;-55
2024/03/14 07:32:03;;;;;;;0.93;0.50;;;11.50;99.90;;;;;;4164113;28;20084;-56
2024/03/14 07:34:06;;;;;;;0.75;0.57;;;11.70;99.90;;;;;;4163789;28;20045;-55
2024/03/14 07:36:15;;;;;;;2.00;1.20;;;12.00;99.90;;;;;;4163625;28;20059;-56
2024/03/14 07:38:21;;;;;;;1.30;0.80;;;12.50;99.90;;;;;;4163951;28;20057;-56
2024/03/14 07:40:32;;;;;;;1.27;0.93;;;13.10;99.90;;;;;;4164056;28;20050;-57
2024/03/14 07:42:36;;;;;;;0.52;0.43;;;13.60;99.90;;;;;;4164210;28;20045;-56
2024/03/14 07:44:38;;;;;;;1.27;0.60;;;13.70;99.60;;;;;;4164138;28;20129;-56
2024/03/14 07:46:40;;;;;;;1.40;0.60;;;13.70;99.80;;;;;;4164062;28;20136;-56
2024/03/14 07:48:44;;;;;;;0.50;0.38;;;13.90;99.50;;;;;;4147737;28;20047;-56
2024/03/14 07:50:46;;;;;;;0.85;0.60;;;13.70;99.30;;;;;;4164683;28;20129;-62
2024/03/14 07:52:48;;;;;;;0.20;0.20;;;13.80;99.60;;;;;;4163840;28;20132;-56
2024/03/14 07:54:53;;;;;;;1.17;0.68;;;14.30;99.30;;;;;;4164448;28;20053;-56
2024/03/14 07:56:55;;;;;;;1.40;0.98;;;14.70;98.80;;;;;;4164098;28;20045;-56
2024/03/14 07:58:57;;;;;;;2.47;0.60;;;14.80;98.00;;;;;;4164439;28;20049;-59
2024/03/14 08:01:00;;;;;;;0.50;0.40;;;14.70;98.10;;;;;;4164395;28;20046;-62
2024/03/14 08:03:03;;;;;;;0.30;0.30;;;14.70;98.60;;;;;;4164535;28;20144;-60
2024/03/14 08:05:07;;;;;;;0.22;0.22;;;14.50;98.30;;;;;;4163972;28;20432;-57
2024/03/14 08:07:17;;;;;;;0.60;0.40;;;14.40;99.00;;;;;;4163278;28;20124;-56
2024/03/14 08:09:19;;;;;;;0.47;0.47;;;14.40;98.70;;;;;;4163421;28;20045;-55
2024/03/14 08:11:22;;;;;;;1.05;0.50;;;14.50;98.90;;;;;;4163397;28;20050;-56
2024/03/14 08:13:26;;;;;;;1.38;0.68;;;14.50;98.90;;;;;;4163170;28;20111;-56
2024/03/14 08:15:35;;;;;;;3.83;0.50;;;14.60;98.40;;;;;;4163356;28;20069;-58
2024/03/14 08:17:39;;;;;;;0.47;0.47;;;14.70;98.80;;;;;;4163486;28;20508;-56
2024/03/14 08:19:42;;;;;;;2.10;1.45;;;14.60;98.40;;;;;;4163326;28;20050;-56
2024/03/14 08:21:47;;;;;;;1.05;0.80;;;14.60;98.40;;;;;;4162185;28;20120;-56
2024/03/14 08:23:52;;;;;;;0.52;0.43;;;14.70;98.20;;;;;;4163847;28;20109;-56
2024/03/14 08:25:55;;;;;;;1.90;0.40;;;14.70;98.30;;;;;;4163545;28;20042;-56
2024/03/14 08:27:57;;;;;;;1.15;0.77;;;14.80;98.40;;;;;;4163445;28;20148;-56
2024/03/14 08:30:00;;;;;;;1.00;0.30;;;14.80;98.00;;;;;;4163596;28;20049;-56
2024/03/14 08:32:03;;;;;;;0.30;0.30;;;14.90;98.30;;;;;;4163236;28;20049;-55
2024/03/14 08:34:05;;;;;;;1.92;0.75;;;14.90;98.50;;;;;;4163130;28;20049;-56
2024/03/14 08:36:16;;;;;;;0.90;0.63;;;14.60;98.10;;;;;;4162381;28;20141;-55
2024/03/14 08:38:19;;;;;;;0.90;0.55;;;14.60;98.60;;;;;;4163185;28;20168;-56
2024/03/14 08:40:23;;;;;;;0.90;0.50;;;14.30;98.70;;;;;;4162795;28;20073;-56
2024/03/14 08:42:34;;;;;;;0.55;0.55;;;14.20;99.20;;;;;;4162780;28;20442;-56
2024/03/14 08:44:50;;;;;;;0.50;0.40;;;14.10;99.20;;;;;;4163289;28;20050;-55
2024/03/14 08:46:52;;;;;;;0.55;0.40;;;14.20;99.10;;;;;;4163159;28;20045;-58
2024/03/14 08:48:54;;;;;;;1.67;1.35;;;14.40;99.30;;;;;;4163166;28;20046;-56
2024/03/14 08:50:57;;;;;;;1.95;0.57;;;14.40;98.80;;;;;;4146748;28;20056;-57
2024/03/14 08:53:00;;;;;;;1.35;0.73;;;14.40;98.60;;;;;;4163110;28;20463;-56
2024/03/14 08:55:05;;;;;;;1.27;0.52;;;14.40;98.30;;;;;;4162626;28;20134;-56
2024/03/14 08:57:09;;;;;;;;;;;14.20;99.00;;;;;;4163182;28;20052;-56
2024/03/14 08:59:13;;;;;;;0.85;0.57;;;14.20;99.00;;;;;;4162175;28;19952;-56
2024/03/14 09:01:15;;;;;;;0.40;0.40;;;14.20;99.10;;;;;;4162760;28;20052;-55
2024/03/14 09:03:18;;;;;;;1.25;0.85;;;14.20;99.00;;;;;;4162773;28;20045;-56
2024/03/14 09:05:21;;;;;;;1.30;0.80;;;14.20;99.00;;;;;;4162720;28;20045;-56
2024/03/14 09:07:23;;;;;;;1.95;0.30;;;14.20;99.00;;;;;;4162954;28;20049;-56
2024/03/14 09:09:34;;;;;;;5.68;1.92;;;14.10;99.10;;;;;;4162692;28;20095;-56
2024/03/14 09:11:37;;;;;;;0.30;0.30;;;14.10;99.20;;;;;;4164459;28;20452;-60
2024/03/14 09:13:40;;;;;;;0.77;0.77;;;14.10;99.30;;;;;;4164270;28;20053;-57
2024/03/14 09:15:42;;;;;;;0.68;0.50;;;14.10;98.80;;;;;;4163435;28;20049;-56
2024/03/14 09:17:48;;;;;;;1.60;0.68;;;14.20;99.20;;;;;;4162854;28;20129;-56
2024/03/14 09:19:50;;;;;;;0.55;0.52;;;14.20;99.10;;;;;;4162315;28;20100;-56
2024/03/14 09:21:53;;;;;;;1.20;0.55;;;14.20;99.10;;;;;;4162525;28;20080;-56
2024/03/14 09:23:55;;;;;;;1.48;0.47;;;14.20;99.10;;;;;;4162434;28;20049;-56
2024/03/14 09:25:57;;;;;;;3.97;1.05;;;14.20;99.00;;;;;;4162415;28;20052;-56
2024/03/14 09:28:00;;;;;;;1.58;1.48;;;14.20;99.10;;;;;;4162475;28;20049;-56
2024/03/14 09:30:08;;;;;;;2.60;0.75;;;14.20;99.00;;;;;;4146724;28;20484;-56
2024/03/14 09:32:11;;;;;;;0.63;0.52;;;14.10;99.20;;;;;;4163685;28;20512;-55
2024/03/14 09:34:13;;;;;;;3.40;1.15;;;14.10;99.00;;;;;;4165478;28;20046;-55
2024/03/14 09:36:15;;;;;;;0.70;0.60;;;14.10;99.10;;;;;;4165684;28;20049;-56
2024/03/14 09:38:17;;;;;;;1.30;0.77;;;14.30;98.90;;;;;;4165852;28;20072;-56
2024/03/14 09:40:21;;;;;;;1.33;0.90;;;14.20;98.80;;;;;;4165872;28;20151;-56
2024/03/14 09:42:25;;;;;;;0.95;0.60;;;14.30;98.80;;;;;;4149493;28;20100;-55
2024/03/14 09:44:27;;;;;;;1.42;0.70;;;14.40;98.90;;;;;;4149254;28;20078;-56
2024/03/14 09:46:30;;;;;;;0.77;0.60;;;14.50;98.80;;;;;;4165664;28;20567;-56
2024/03/14 09:48:33;;;;;;;1.02;0.50;;;14.50;98.90;;;;;;4165066;28;20073;-55
2024/03/14 09:50:36;;;;;;;1.58;0.57;;;14.60;98.80;;;;;;4165885;28;20045;-61
2024/03/14 09:52:38;;;;;;;2.17;1.05;;;14.50;98.60;;;;;;4165845;28;20048;-56
2024/03/14 09:54:41;;;;;;;2.38;1.38;;;14.60;98.70;;;;;;4149240;28;20054;-59
2024/03/14 09:56:43;;;;;;;0.50;0.50;;;14.70;98.70;;;;;;4149467;28;20042;-56
2024/03/14 09:58:45;;;;;;;0.47;0.40;;;14.80;98.30;;;;;;4163603;28;20045;-56
2024/03/14 10:00:51;;;;;;;0.50;0.40;;;14.90;98.40;;;;;;4154862;28;20053;-57
2024/03/14 10:02:55;;;;;;;1.20;0.57;;;15.10;98.60;;;;;;4142947;28;20053;-57
2024/03/14 10:04:58;;;;;;;2.50;0.70;;;15.30;98.00;;;;;;4164705;28;20401;-57
2024/03/14 10:07:01;;;;;;;1.02;0.55;;;15.40;98.10;;;;;;4148614;28;20140;-56
2024/03/14 10:09:09;;;;;;;0.55;0.40;;;15.50;98.10;;;;;;4164914;28;20128;-57
2024/03/14 10:11:25;;;;;;;1.80;1.08;;;15.40;97.80;;;;;;4165812;28;20041;-56
2024/03/14 10:13:29;;;;;;;0.88;0.63;;;15.60;97.80;;;;;;4164630;28;20539;-56
2024/03/14 10:15:37;;;;;;;1.40;0.65;;;15.70;97.80;;;;;;4146608;28;20416;-55
2024/03/14 10:17:43;;;;;;;1.25;0.32;;;15.70;97.60;;;;;;4161753;28;20041;-56
2024/03/14 10:19:45;;;;;;;0.65;0.43;;;15.80;97.80;;;;;;4148137;28;20108;-55
2024/03/14 10:21:49;;;;;;;1.15;0.47;;;15.90;97.50;;;;;;4147440;28;20054;-56
2024/03/14 10:23:52;;;;;;;1.08;0.50;;;16.10;97.40;;;;;;4161375;28;20065;-56
2024/03/14 10:25:54;;;;;;;0.88;0.50;;;16.10;97.40;;;;;;4146911;28;20042;-56
2024/03/14 10:27:57;;;;;;;0.45;0.43;;;16.20;97.10;;;;;;4162540;28;20485;-56
2024/03/14 10:30:12;;;;;;;0.30;0.30;;;16.20;96.90;;;;;;4163027;28;20053;-55
2024/03/14 10:32:15;;;;;;;1.55;0.52;;;16.30;96.40;;;;;;4163309;28;20041;-57
2024/03/14 10:34:19;;;;;;;1.13;0.57;;;16.20;96.90;;;;;;4164893;28;20050;-56
2024/03/14 10:36:22;;;;;;;0.43;0.40;;;16.20;96.60;;;;;;4161106;28;20116;-59
2024/03/14 10:38:27;;;;;;;2.45;0.80;;;16.30;96.90;;;;;;4148167;28;20399;-55
2024/03/14 10:40:29;;;;;;;0.65;0.20;;;16.40;96.70;;;;;;4161086;28;20050;-55
2024/03/14 10:42:33;;;;;;;2.22;0.50;;;16.50;96.60;;;;;;4163922;28;20049;-56
2024/03/14 10:44:38;;;;;;;1.35;0.60;;;16.60;96.50;;;;;;4163487;28;20045;-55